Terminal Aerodrome Forecast
Issued by NWS Charleston, WV

Current Version | Previous Version | Graphics & Text | Print | Product List | Glossary On
Versions: 1 2 3 4 5 6 7 8 9 10 11 12 13 14 15 16 17 18 19 20 21 22 23 24 25 26 27 28 29 30 31 32
000
FTUS41 KRLX 230555
TAFPKB
TAF
KPKB 230555Z 2306/2406 00000KT 1 1/2SM BR FEW002 SCT100
     FM230900 00000KT 3/4SM BR BKN002
     FM231400 22005KT 3SM BR SCT010 BKN050
     FM231800 23005KT P6SM VCTS BKN050CB=

USA.gov is the U.S. government's official web portal to all federal, state and local government web resources and services.